sensor_id;sensor_type;location;lat;lon;timestamp;P1;durP1;ratioP1;P2;durP2;ratioP2
4646;SDS011;2336;47.822;7.564;2023-09-12T00:01:20;7.30;;;6.60;;
4646;SDS011;2336;47.822;7.564;2023-09-12T00:03:46;7.20;;;6.70;;
4646;SDS011;2336;47.822;7.564;2023-09-12T00:06:13;7.70;;;7.00;;
4646;SDS011;2336;47.822;7.564;2023-09-12T00:08:40;8.50;;;6.73;;
4646;SDS011;2336;47.822;7.564;2023-09-12T00:11:09;7.70;;;7.00;;
4646;SDS011;2336;47.822;7.564;2023-09-12T00:13:37;8.17;;;6.90;;
4646;SDS011;2336;47.822;7.564;2023-09-12T00:16:05;7.30;;;6.80;;
4646;SDS011;2336;47.822;7.564;2023-09-12T00:18:32;8.23;;;7.43;;
4646;SDS011;2336;47.822;7.564;2023-09-12T00:21:00;7.93;;;7.20;;
4646;SDS011;2336;47.822;7.564;2023-09-12T00:23:27;7.97;;;7.30;;
4646;SDS011;2336;47.822;7.564;2023-09-12T00:25:54;7.40;;;6.70;;
4646;SDS011;2336;47.822;7.564;2023-09-12T00:28:22;8.03;;;7.30;;
4646;SDS011;2336;47.822;7.564;2023-09-12T00:30:49;12.50;;;7.17;;
4646;SDS011;2336;47.822;7.564;2023-09-12T00:33:17;7.67;;;6.87;;
4646;SDS011;2336;47.822;7.564;2023-09-12T00:35:44;9.10;;;7.50;;
4646;SDS011;2336;47.822;7.564;2023-09-12T00:38:11;8.40;;;6.90;;
4646;SDS011;2336;47.822;7.564;2023-09-12T00:40:38;7.97;;;7.37;;
4646;SDS011;2336;47.822;7.564;2023-09-12T00:43:04;7.60;;;7.00;;
4646;SDS011;2336;47.822;7.564;2023-09-12T00:45:32;7.77;;;7.20;;
4646;SDS011;2336;47.822;7.564;2023-09-12T00:47:59;6.93;;;6.43;;
4646;SDS011;2336;47.822;7.564;2023-09-12T00:50:29;7.50;;;6.80;;
4646;SDS011;2336;47.822;7.564;2023-09-12T00:52:56;7.57;;;6.80;;
4646;SDS011;2336;47.822;7.564;2023-09-12T00:55:23;7.60;;;6.90;;
4646;SDS011;2336;47.822;7.564;2023-09-12T00:57:51;7.47;;;6.83;;
4646;SDS011;2336;47.822;7.564;2023-09-12T01:00:19;7.37;;;6.87;;
4646;SDS011;2336;47.822;7.564;2023-09-12T01:02:48;7.27;;;6.63;;
4646;SDS011;2336;47.822;7.564;2023-09-12T01:05:16;7.80;;;7.03;;
4646;SDS011;2336;47.822;7.564;2023-09-12T01:07:43;8.77;;;7.83;;
4646;SDS011;2336;47.822;7.564;2023-09-12T01:10:10;8.13;;;7.43;;
4646;SDS011;2336;47.822;7.564;2023-09-12T01:12:37;10.43;;;7.90;;
4646;SDS011;2336;47.822;7.564;2023-09-12T01:15:04;8.43;;;7.57;;
4646;SDS011;2336;47.822;7.564;2023-09-12T01:17:38;8.27;;;7.67;;
4646;SDS011;2336;47.822;7.564;2023-09-12T01:20:08;8.03;;;7.23;;
4646;SDS011;2336;47.822;7.564;2023-09-12T01:22:48;8.10;;;7.37;;
4646;SDS011;2336;47.822;7.564;2023-09-12T01:28:12;9.83;;;7.80;;
4646;SDS011;2336;47.822;7.564;2023-09-12T01:30:42;8.73;;;8.10;;
4646;SDS011;2336;47.822;7.564;2023-09-12T01:33:11;9.20;;;8.40;;
4646;SDS011;2336;47.822;7.564;2023-09-12T01:35:38;9.80;;;8.43;;
4646;SDS011;2336;47.822;7.564;2023-09-12T01:38:05;9.17;;;8.47;;
4646;SDS011;2336;47.822;7.564;2023-09-12T01:40:33;9.40;;;8.70;;
4646;SDS011;2336;47.822;7.564;2023-09-12T01:43:07;9.50;;;8.70;;
4646;SDS011;2336;47.822;7.564;2023-09-12T01:45:36;9.03;;;8.33;;
4646;SDS011;2336;47.822;7.564;2023-09-12T01:48:04;10.07;;;9.27;;
4646;SDS011;2336;47.822;7.564;2023-09-12T01:50:32;8.80;;;8.20;;
4646;SDS011;2336;47.822;7.564;2023-09-12T01:52:59;9.67;;;8.77;;
4646;SDS011;2336;47.822;7.564;2023-09-12T01:55:27;9.20;;;8.50;;
4646;SDS011;2336;47.822;7.564;2023-09-12T01:57:54;10.27;;;9.40;;
4646;SDS011;2336;47.822;7.564;2023-09-12T02:00:22;9.33;;;8.60;;
4646;SDS011;2336;47.822;7.564;2023-09-12T02:02:50;10.27;;;9.27;;
4646;SDS011;2336;47.822;7.564;2023-09-12T02:05:17;10.07;;;9.27;;
4646;SDS011;2336;47.822;7.564;2023-09-12T02:07:46;10.40;;;9.40;;
4646;SDS011;2336;47.822;7.564;2023-09-12T02:10:14;10.13;;;9.30;;
4646;SDS011;2336;47.822;7.564;2023-09-12T02:12:41;9.50;;;8.80;;
4646;SDS011;2336;47.822;7.564;2023-09-12T02:15:08;10.47;;;9.63;;
4646;SDS011;2336;47.822;7.564;2023-09-12T02:17:35;9.80;;;9.10;;
4646;SDS011;2336;47.822;7.564;2023-09-12T02:20:06;10.60;;;9.57;;
4646;SDS011;2336;47.822;7.564;2023-09-12T02:22:33;10.70;;;9.70;;
4646;SDS011;2336;47.822;7.564;2023-09-12T02:25:01;10.37;;;9.57;;
4646;SDS011;2336;47.822;7.564;2023-09-12T02:27:29;9.80;;;9.00;;
4646;SDS011;2336;47.822;7.564;2023-09-12T02:29:56;9.57;;;8.87;;
4646;SDS011;2336;47.822;7.564;2023-09-12T02:32:23;8.60;;;7.90;;
4646;SDS011;2336;47.822;7.564;2023-09-12T02:34:50;10.10;;;9.30;;
4646;SDS011;2336;47.822;7.564;2023-09-12T02:37:19;11.20;;;9.50;;
4646;SDS011;2336;47.822;7.564;2023-09-12T02:39:46;9.77;;;8.97;;
4646;SDS011;2336;47.822;7.564;2023-09-12T02:42:13;10.57;;;9.47;;
4646;SDS011;2336;47.822;7.564;2023-09-12T02:44:40;10.00;;;9.20;;
4646;SDS011;2336;47.822;7.564;2023-09-12T02:47:06;20.90;;;10.40;;
4646;SDS011;2336;47.822;7.564;2023-09-12T02:49:33;10.67;;;9.60;;
4646;SDS011;2336;47.822;7.564;2023-09-12T02:52:00;11.80;;;10.70;;
4646;SDS011;2336;47.822;7.564;2023-09-12T02:54:28;10.00;;;8.90;;
4646;SDS011;2336;47.822;7.564;2023-09-12T02:56:55;10.00;;;9.10;;
4646;SDS011;2336;47.822;7.564;2023-09-12T02:59:22;11.27;;;9.70;;
4646;SDS011;2336;47.822;7.564;2023-09-12T03:01:48;10.10;;;9.30;;
4646;SDS011;2336;47.822;7.564;2023-09-12T03:04:15;9.63;;;8.83;;
4646;SDS011;2336;47.822;7.564;2023-09-12T03:06:42;10.00;;;9.20;;
4646;SDS011;2336;47.822;7.564;2023-09-12T03:09:09;9.93;;;9.00;;
4646;SDS011;2336;47.822;7.564;2023-09-12T03:11:38;9.93;;;9.13;;
4646;SDS011;2336;47.822;7.564;2023-09-12T03:14:05;9.30;;;8.60;;
4646;SDS011;2336;47.822;7.564;2023-09-12T03:16:32;11.17;;;9.23;;
4646;SDS011;2336;47.822;7.564;2023-09-12T03:18:59;9.57;;;8.77;;
4646;SDS011;2336;47.822;7.564;2023-09-12T03:21:26;9.30;;;8.70;;
4646;SDS011;2336;47.822;7.564;2023-09-12T03:23:53;10.53;;;9.53;;
4646;SDS011;2336;47.822;7.564;2023-09-12T03:26:19;9.93;;;9.07;;
4646;SDS011;2336;47.822;7.564;2023-09-12T03:28:48;10.40;;;9.50;;
4646;SDS011;2336;47.822;7.564;2023-09-12T03:31:15;9.90;;;8.83;;
4646;SDS011;2336;47.822;7.564;2023-09-12T03:33:42;12.37;;;9.27;;
4646;SDS011;2336;47.822;7.564;2023-09-12T03:36:14;10.63;;;8.57;;
4646;SDS011;2336;47.822;7.564;2023-09-12T03:38:41;9.10;;;8.40;;
4646;SDS011;2336;47.822;7.564;2023-09-12T03:41:08;11.40;;;10.23;;
4646;SDS011;2336;47.822;7.564;2023-09-12T03:43:35;9.40;;;8.70;;
4646;SDS011;2336;47.822;7.564;2023-09-12T03:46:04;10.43;;;9.47;;
4646;SDS011;2336;47.822;7.564;2023-09-12T03:48:31;9.63;;;8.70;;
4646;SDS011;2336;47.822;7.564;2023-09-12T03:50:58;9.63;;;8.80;;
4646;SDS011;2336;47.822;7.564;2023-09-12T03:53:24;9.63;;;8.83;;
4646;SDS011;2336;47.822;7.564;2023-09-12T03:55:53;13.00;;;9.50;;
4646;SDS011;2336;47.822;7.564;2023-09-12T03:58:19;16.63;;;9.30;;
4646;SDS011;2336;47.822;7.564;2023-09-12T04:00:46;9.60;;;8.90;;
4646;SDS011;2336;47.822;7.564;2023-09-12T04:03:14;10.33;;;9.53;;
4646;SDS011;2336;47.822;7.564;2023-09-12T04:05:42;10.37;;;9.60;;
4646;SDS011;2336;47.822;7.564;2023-09-12T04:08:08;10.43;;;9.70;;
4646;SDS011;2336;47.822;7.564;2023-09-12T04:10:35;12.87;;;11.37;;
4646;SDS011;2336;47.822;7.564;2023-09-12T04:13:02;11.67;;;10.80;;
4646;SDS011;2336;47.822;7.564;2023-09-12T04:15:29;12.37;;;10.10;;
4646;SDS011;2336;47.822;7.564;2023-09-12T04:17:56;10.90;;;10.10;;
4646;SDS011;2336;47.822;7.564;2023-09-12T04:20:24;11.33;;;10.33;;
4646;SDS011;2336;47.822;7.564;2023-09-12T04:22:51;11.13;;;10.13;;
4646;SDS011;2336;47.822;7.564;2023-09-12T04:25:18;9.90;;;9.20;;
4646;SDS011;2336;47.822;7.564;2023-09-12T04:27:45;15.70;;;9.60;;
4646;SDS011;2336;47.822;7.564;2023-09-12T04:30:12;9.77;;;8.83;;
4646;SDS011;2336;47.822;7.564;2023-09-12T04:32:39;10.93;;;10.00;;
4646;SDS011;2336;47.822;7.564;2023-09-12T04:35:06;12.13;;;9.10;;
4646;SDS011;2336;47.822;7.564;2023-09-12T04:37:35;10.67;;;9.60;;
4646;SDS011;2336;47.822;7.564;2023-09-12T04:40:02;10.93;;;9.80;;
4646;SDS011;2336;47.822;7.564;2023-09-12T04:42:31;11.00;;;9.80;;
4646;SDS011;2336;47.822;7.564;2023-09-12T04:44:58;10.63;;;9.57;;
4646;SDS011;2336;47.822;7.564;2023-09-12T04:47:25;14.20;;;9.90;;
4646;SDS011;2336;47.822;7.564;2023-09-12T04:49:52;10.43;;;9.53;;
4646;SDS011;2336;47.822;7.564;2023-09-12T04:52:19;15.10;;;10.27;;
4646;SDS011;2336;47.822;7.564;2023-09-12T04:54:47;10.20;;;9.20;;
4646;SDS011;2336;47.822;7.564;2023-09-12T04:57:14;11.77;;;10.70;;
4646;SDS011;2336;47.822;7.564;2023-09-12T04:59:41;11.03;;;9.97;;
4646;SDS011;2336;47.822;7.564;2023-09-12T05:02:07;10.53;;;9.63;;
4646;SDS011;2336;47.822;7.564;2023-09-12T05:04:34;11.63;;;10.43;;
4646;SDS011;2336;47.822;7.564;2023-09-12T05:07:01;11.50;;;10.50;;
4646;SDS011;2336;47.822;7.564;2023-09-12T05:09:28;10.73;;;9.73;;
4646;SDS011;2336;47.822;7.564;2023-09-12T05:11:56;11.30;;;10.30;;
4646;SDS011;2336;47.822;7.564;2023-09-12T05:14:23;11.87;;;10.63;;
4646;SDS011;2336;47.822;7.564;2023-09-12T05:16:50;11.73;;;10.70;;
4646;SDS011;2336;47.822;7.564;2023-09-12T05:19:16;13.40;;;10.23;;
4646;SDS011;2336;47.822;7.564;2023-09-12T05:21:43;13.20;;;10.73;;
4646;SDS011;2336;47.822;7.564;2023-09-12T05:24:10;11.20;;;10.30;;
4646;SDS011;2336;47.822;7.564;2023-09-12T05:26:37;11.10;;;10.20;;
4646;SDS011;2336;47.822;7.564;2023-09-12T05:29:05;10.93;;;10.03;;
4646;SDS011;2336;47.822;7.564;2023-09-12T05:31:31;11.30;;;10.37;;
4646;SDS011;2336;47.822;7.564;2023-09-12T05:33:58;10.60;;;9.50;;
4646;SDS011;2336;47.822;7.564;2023-09-12T05:36:25;10.60;;;9.60;;
4646;SDS011;2336;47.822;7.564;2023-09-12T05:38:52;11.20;;;10.37;;
4646;SDS011;2336;47.822;7.564;2023-09-12T05:41:19;11.53;;;10.20;;
4646;SDS011;2336;47.822;7.564;2023-09-12T05:43:46;10.77;;;9.67;;
4646;SDS011;2336;47.822;7.564;2023-09-12T05:46:14;14.40;;;10.00;;
4646;SDS011;2336;47.822;7.564;2023-09-12T05:48:40;10.30;;;9.50;;
4646;SDS011;2336;47.822;7.564;2023-09-12T05:51:07;16.50;;;9.90;;
4646;SDS011;2336;47.822;7.564;2023-09-12T05:53:34;10.70;;;9.80;;
4646;SDS011;2336;47.822;7.564;2023-09-12T05:56:01;10.40;;;9.60;;
4646;SDS011;2336;47.822;7.564;2023-09-12T05:58:28;12.27;;;11.10;;
4646;SDS011;2336;47.822;7.564;2023-09-12T06:00:55;11.63;;;10.63;;
4646;SDS011;2336;47.822;7.564;2023-09-12T06:03:23;10.83;;;9.97;;
4646;SDS011;2336;47.822;7.564;2023-09-12T06:05:50;11.47;;;10.47;;
4646;SDS011;2336;47.822;7.564;2023-09-12T06:08:16;10.10;;;9.30;;
4646;SDS011;2336;47.822;7.564;2023-09-12T06:10:43;11.30;;;10.30;;
4646;SDS011;2336;47.822;7.564;2023-09-12T06:13:10;11.97;;;10.90;;
4646;SDS011;2336;47.822;7.564;2023-09-12T06:15:37;13.93;;;11.63;;
4646;SDS011;2336;47.822;7.564;2023-09-12T06:18:06;12.00;;;11.10;;
4646;SDS011;2336;47.822;7.564;2023-09-12T06:20:34;18.93;;;12.97;;
4646;SDS011;2336;47.822;7.564;2023-09-12T06:23:01;12.63;;;11.53;;
4646;SDS011;2336;47.822;7.564;2023-09-12T06:25:28;206.97;;;75.97;;
4646;SDS011;2336;47.822;7.564;2023-09-12T06:27:55;247.07;;;96.57;;
4646;SDS011;2336;47.822;7.564;2023-09-12T06:30:22;195.10;;;78.33;;
4646;SDS011;2336;47.822;7.564;2023-09-12T06:32:48;128.00;;;55.00;;
4646;SDS011;2336;47.822;7.564;2023-09-12T06:35:15;76.20;;;33.57;;
4646;SDS011;2336;47.822;7.564;2023-09-12T06:37:43;42.73;;;22.43;;
4646;SDS011;2336;47.822;7.564;2023-09-12T06:40:12;23.30;;;14.30;;
4646;SDS011;2336;47.822;7.564;2023-09-12T06:42:39;13.53;;;11.23;;
4646;SDS011;2336;47.822;7.564;2023-09-12T06:45:06;19.50;;;11.43;;
4646;SDS011;2336;47.822;7.564;2023-09-12T06:47:33;10.70;;;9.70;;
4646;SDS011;2336;47.822;7.564;2023-09-12T06:50:00;10.90;;;9.83;;
4646;SDS011;2336;47.822;7.564;2023-09-12T06:52:27;10.50;;;9.60;;
4646;SDS011;2336;47.822;7.564;2023-09-12T06:54:56;11.10;;;10.10;;
4646;SDS011;2336;47.822;7.564;2023-09-12T06:57:22;10.23;;;9.43;;
4646;SDS011;2336;47.822;7.564;2023-09-12T06:59:49;10.70;;;9.73;;
4646;SDS011;2336;47.822;7.564;2023-09-12T07:02:16;10.30;;;9.57;;
4646;SDS011;2336;47.822;7.564;2023-09-12T07:04:43;10.70;;;9.50;;
4646;SDS011;2336;47.822;7.564;2023-09-12T07:07:10;11.23;;;10.30;;
4646;SDS011;2336;47.822;7.564;2023-09-12T07:09:37;11.50;;;10.50;;
4646;SDS011;2336;47.822;7.564;2023-09-12T07:12:05;12.03;;;11.00;;
4646;SDS011;2336;47.822;7.564;2023-09-12T07:14:32;10.20;;;9.30;;
4646;SDS011;2336;47.822;7.564;2023-09-12T07:16:59;10.97;;;9.97;;
4646;SDS011;2336;47.822;7.564;2023-09-12T07:19:26;11.30;;;10.10;;
4646;SDS011;2336;47.822;7.564;2023-09-12T07:21:53;13.40;;;10.43;;
4646;SDS011;2336;47.822;7.564;2023-09-12T07:24:20;10.97;;;10.07;;
4646;SDS011;2336;47.822;7.564;2023-09-12T07:26:51;10.87;;;9.60;;
4646;SDS011;2336;47.822;7.564;2023-09-12T07:29:19;11.93;;;8.90;;
4646;SDS011;2336;47.822;7.564;2023-09-12T07:31:45;14.80;;;9.60;;
4646;SDS011;2336;47.822;7.564;2023-09-12T07:34:12;13.37;;;10.93;;
4646;SDS011;2336;47.822;7.564;2023-09-12T07:36:40;10.00;;;8.77;;
4646;SDS011;2336;47.822;7.564;2023-09-12T07:39:06;15.13;;;12.03;;
4646;SDS011;2336;47.822;7.564;2023-09-12T07:41:34;22.47;;;14.37;;
4646;SDS011;2336;47.822;7.564;2023-09-12T07:44:01;22.17;;;15.07;;
4646;SDS011;2336;47.822;7.564;2023-09-12T07:46:31;9.87;;;8.97;;
4646;SDS011;2336;47.822;7.564;2023-09-12T07:48:57;10.53;;;9.60;;
4646;SDS011;2336;47.822;7.564;2023-09-12T07:51:24;11.53;;;9.20;;
4646;SDS011;2336;47.822;7.564;2023-09-12T07:53:51;10.23;;;9.37;;
4646;SDS011;2336;47.822;7.564;2023-09-12T07:56:18;16.40;;;9.37;;
4646;SDS011;2336;47.822;7.564;2023-09-12T07:58:44;16.53;;;11.63;;
4646;SDS011;2336;47.822;7.564;2023-09-12T08:01:12;50.43;;;25.40;;
4646;SDS011;2336;47.822;7.564;2023-09-12T08:03:41;30.47;;;18.10;;
4646;SDS011;2336;47.822;7.564;2023-09-12T08:06:09;22.43;;;15.10;;
4646;SDS011;2336;47.822;7.564;2023-09-12T08:08:35;35.73;;;20.73;;
4646;SDS011;2336;47.822;7.564;2023-09-12T08:11:02;38.10;;;22.77;;
4646;SDS011;2336;47.822;7.564;2023-09-12T08:13:29;48.60;;;27.87;;
4646;SDS011;2336;47.822;7.564;2023-09-12T08:15:57;35.20;;;20.93;;
4646;SDS011;2336;47.822;7.564;2023-09-12T08:18:25;24.83;;;12.53;;
4646;SDS011;2336;47.822;7.564;2023-09-12T08:20:56;21.93;;;15.60;;
4646;SDS011;2336;47.822;7.564;2023-09-12T08:23:23;19.90;;;13.00;;
4646;SDS011;2336;47.822;7.564;2023-09-12T08:25:49;8.70;;;7.90;;
4646;SDS011;2336;47.822;7.564;2023-09-12T08:28:16;27.73;;;16.23;;
4646;SDS011;2336;47.822;7.564;2023-09-12T08:30:44;32.93;;;17.63;;
4646;SDS011;2336;47.822;7.564;2023-09-12T08:33:11;20.60;;;15.00;;
4646;SDS011;2336;47.822;7.564;2023-09-12T08:35:38;15.00;;;8.60;;
4646;SDS011;2336;47.822;7.564;2023-09-12T08:38:06;9.40;;;6.53;;
4646;SDS011;2336;47.822;7.564;2023-09-12T08:40:33;7.17;;;6.47;;
4646;SDS011;2336;47.822;7.564;2023-09-12T08:43:01;8.67;;;6.80;;
4646;SDS011;2336;47.822;7.564;2023-09-12T08:45:29;9.60;;;7.70;;
4646;SDS011;2336;47.822;7.564;2023-09-12T08:47:57;10.27;;;8.60;;
4646;SDS011;2336;47.822;7.564;2023-09-12T08:50:26;11.97;;;9.10;;
4646;SDS011;2336;47.822;7.564;2023-09-12T08:52:56;17.80;;;12.90;;
4646;SDS011;2336;47.822;7.564;2023-09-12T08:55:24;18.20;;;10.90;;
4646;SDS011;2336;47.822;7.564;2023-09-12T08:57:51;13.50;;;10.80;;
4646;SDS011;2336;47.822;7.564;2023-09-12T09:00:21;12.80;;;10.37;;
4646;SDS011;2336;47.822;7.564;2023-09-12T09:02:49;12.37;;;11.17;;
4646;SDS011;2336;47.822;7.564;2023-09-12T09:05:16;26.23;;;15.27;;
4646;SDS011;2336;47.822;7.564;2023-09-12T09:07:46;7.63;;;7.13;;
4646;SDS011;2336;47.822;7.564;2023-09-12T09:10:15;7.33;;;6.57;;
4646;SDS011;2336;47.822;7.564;2023-09-12T09:12:45;7.27;;;6.67;;
4646;SDS011;2336;47.822;7.564;2023-09-12T09:15:22;11.33;;;7.20;;
4646;SDS011;2336;47.822;7.564;2023-09-12T09:17:51;7.00;;;6.30;;
4646;SDS011;2336;47.822;7.564;2023-09-12T09:20:22;10.43;;;6.30;;
4646;SDS011;2336;47.822;7.564;2023-09-12T09:22:57;6.73;;;6.10;;
4646;SDS011;2336;47.822;7.564;2023-09-12T09:25:25;8.47;;;6.87;;
4646;SDS011;2336;47.822;7.564;2023-09-12T09:27:54;7.37;;;6.67;;
4646;SDS011;2336;47.822;7.564;2023-09-12T09:30:38;8.13;;;6.57;;
4646;SDS011;2336;47.822;7.564;2023-09-12T09:33:06;10.43;;;6.47;;
4646;SDS011;2336;47.822;7.564;2023-09-12T09:35:33;7.20;;;6.67;;
4646;SDS011;2336;47.822;7.564;2023-09-12T09:38:01;7.80;;;6.50;;
4646;SDS011;2336;47.822;7.564;2023-09-12T09:40:29;9.93;;;6.73;;
4646;SDS011;2336;47.822;7.564;2023-09-12T09:42:57;6.33;;;5.93;;
4646;SDS011;2336;47.822;7.564;2023-09-12T09:45:26;8.13;;;6.20;;
4646;SDS011;2336;47.822;7.564;2023-09-12T09:47:56;7.27;;;6.77;;
4646;SDS011;2336;47.822;7.564;2023-09-12T09:50:24;10.67;;;6.83;;
4646;SDS011;2336;47.822;7.564;2023-09-12T09:52:52;7.00;;;6.40;;
4646;SDS011;2336;47.822;7.564;2023-09-12T09:55:21;9.37;;;6.40;;
4646;SDS011;2336;47.822;7.564;2023-09-12T09:57:48;6.50;;;6.00;;
4646;SDS011;2336;47.822;7.564;2023-09-12T10:00:18;9.60;;;5.97;;
4646;SDS011;2336;47.822;7.564;2023-09-12T10:02:46;6.47;;;5.93;;
4646;SDS011;2336;47.822;7.564;2023-09-12T10:05:16;9.67;;;5.80;;
4646;SDS011;2336;47.822;7.564;2023-09-12T10:07:44;6.50;;;6.10;;
4646;SDS011;2336;47.822;7.564;2023-09-12T10:10:14;6.23;;;5.80;;
4646;SDS011;2336;47.822;7.564;2023-09-12T10:12:45;7.03;;;6.33;;
4646;SDS011;2336;47.822;7.564;2023-09-12T10:15:15;11.73;;;6.17;;
4646;SDS011;2336;47.822;7.564;2023-09-12T10:17:46;6.73;;;5.63;;
4646;SDS011;2336;47.822;7.564;2023-09-12T10:20:19;6.70;;;6.03;;
4646;SDS011;2336;47.822;7.564;2023-09-12T10:22:49;6.87;;;5.93;;
4646;SDS011;2336;47.822;7.564;2023-09-12T10:25:21;11.17;;;6.20;;
4646;SDS011;2336;47.822;7.564;2023-09-12T10:27:49;6.37;;;5.90;;
4646;SDS011;2336;47.822;7.564;2023-09-12T10:30:19;8.07;;;6.53;;
4646;SDS011;2336;47.822;7.564;2023-09-12T10:32:47;6.43;;;6.03;;
4646;SDS011;2336;47.822;7.564;2023-09-12T10:35:15;6.93;;;5.80;;
4646;SDS011;2336;47.822;7.564;2023-09-12T10:37:43;7.00;;;6.40;;
4646;SDS011;2336;47.822;7.564;2023-09-12T10:40:12;6.50;;;6.07;;
4646;SDS011;2336;47.822;7.564;2023-09-12T10:42:40;6.77;;;6.17;;
4646;SDS011;2336;47.822;7.564;2023-09-12T10:45:09;15.33;;;6.93;;
4646;SDS011;2336;47.822;7.564;2023-09-12T10:47:37;6.93;;;6.27;;
4646;SDS011;2336;47.822;7.564;2023-09-12T10:50:05;6.73;;;6.23;;
4646;SDS011;2336;47.822;7.564;2023-09-12T10:52:35;7.60;;;5.73;;
4646;SDS011;2336;47.822;7.564;2023-09-12T10:55:05;6.70;;;6.10;;
4646;SDS011;2336;47.822;7.564;2023-09-12T10:57:36;6.83;;;6.30;;
4646;SDS011;2336;47.822;7.564;2023-09-12T11:00:29;6.33;;;5.93;;
4646;SDS011;2336;47.822;7.564;2023-09-12T11:02:59;6.83;;;6.13;;
4646;SDS011;2336;47.822;7.564;2023-09-12T11:05:52;6.23;;;5.83;;
4646;SDS011;2336;47.822;7.564;2023-09-12T11:08:20;7.60;;;6.73;;
4646;SDS011;2336;47.822;7.564;2023-09-12T11:13:45;7.00;;;6.30;;
4646;SDS011;2336;47.822;7.564;2023-09-12T11:16:12;6.60;;;6.20;;
4646;SDS011;2336;47.822;7.564;2023-09-12T11:21:43;8.20;;;6.53;;
4646;SDS011;2336;47.822;7.564;2023-09-12T11:24:12;6.00;;;5.60;;
4646;SDS011;2336;47.822;7.564;2023-09-12T11:26:55;6.50;;;6.10;;
4646;SDS011;2336;47.822;7.564;2023-09-12T11:29:26;11.23;;;6.20;;
4646;SDS011;2336;47.822;7.564;2023-09-12T11:31:55;6.57;;;5.27;;
4646;SDS011;2336;47.822;7.564;2023-09-12T11:34:28;6.20;;;5.70;;
4646;SDS011;2336;47.822;7.564;2023-09-12T11:36:57;5.87;;;5.47;;
4646;SDS011;2336;47.822;7.564;2023-09-12T11:39:27;9.07;;;6.10;;
4646;SDS011;2336;47.822;7.564;2023-09-12T11:41:56;6.73;;;6.23;;
4646;SDS011;2336;47.822;7.564;2023-09-12T11:44:23;5.73;;;5.33;;
4646;SDS011;2336;47.822;7.564;2023-09-12T11:46:52;5.40;;;5.10;;
4646;SDS011;2336;47.822;7.564;2023-09-12T11:49:19;6.13;;;5.67;;
4646;SDS011;2336;47.822;7.564;2023-09-12T11:51:48;10.27;;;5.53;;
4646;SDS011;2336;47.822;7.564;2023-09-12T11:54:17;6.40;;;6.00;;
4646;SDS011;2336;47.822;7.564;2023-09-12T11:56:46;5.87;;;5.57;;
4646;SDS011;2336;47.822;7.564;2023-09-12T11:59:13;6.87;;;6.37;;
4646;SDS011;2336;47.822;7.564;2023-09-12T12:01:41;6.60;;;6.20;;
4646;SDS011;2336;47.822;7.564;2023-09-12T12:04:08;6.33;;;5.93;;
4646;SDS011;2336;47.822;7.564;2023-09-12T12:06:35;6.40;;;5.90;;
4646;SDS011;2336;47.822;7.564;2023-09-12T12:09:04;6.27;;;5.67;;
4646;SDS011;2336;47.822;7.564;2023-09-12T12:11:30;7.07;;;6.37;;
4646;SDS011;2336;47.822;7.564;2023-09-12T12:13:58;6.27;;;5.63;;
4646;SDS011;2336;47.822;7.564;2023-09-12T12:16:34;7.50;;;6.00;;
4646;SDS011;2336;47.822;7.564;2023-09-12T12:19:01;6.57;;;5.97;;
4646;SDS011;2336;47.822;7.564;2023-09-12T12:21:28;5.97;;;5.50;;
4646;SDS011;2336;47.822;7.564;2023-09-12T12:23:59;6.33;;;5.73;;
4646;SDS011;2336;47.822;7.564;2023-09-12T12:26:28;5.53;;;5.07;;
4646;SDS011;2336;47.822;7.564;2023-09-12T12:28:55;5.77;;;5.40;;
4646;SDS011;2336;47.822;7.564;2023-09-12T12:31:22;5.67;;;5.27;;
4646;SDS011;2336;47.822;7.564;2023-09-12T12:33:52;5.93;;;5.50;;
4646;SDS011;2336;47.822;7.564;2023-09-12T12:36:20;6.17;;;5.67;;
4646;SDS011;2336;47.822;7.564;2023-09-12T12:38:47;5.37;;;4.83;;
4646;SDS011;2336;47.822;7.564;2023-09-12T12:41:16;5.37;;;4.97;;
4646;SDS011;2336;47.822;7.564;2023-09-12T12:43:49;5.80;;;5.40;;
4646;SDS011;2336;47.822;7.564;2023-09-12T12:46:17;4.83;;;4.63;;
4646;SDS011;2336;47.822;7.564;2023-09-12T12:48:46;8.03;;;4.07;;
4646;SDS011;2336;47.822;7.564;2023-09-12T12:51:14;4.77;;;4.57;;
4646;SDS011;2336;47.822;7.564;2023-09-12T12:53:43;5.57;;;5.00;;
4646;SDS011;2336;47.822;7.564;2023-09-12T12:56:12;5.20;;;4.90;;
4646;SDS011;2336;47.822;7.564;2023-09-12T12:58:45;4.80;;;4.50;;
4646;SDS011;2336;47.822;7.564;2023-09-12T13:01:13;5.50;;;4.40;;
4646;SDS011;2336;47.822;7.564;2023-09-12T13:03:41;10.10;;;4.70;;
4646;SDS011;2336;47.822;7.564;2023-09-12T13:06:08;5.20;;;4.80;;
4646;SDS011;2336;47.822;7.564;2023-09-12T13:08:38;7.87;;;4.60;;
4646;SDS011;2336;47.822;7.564;2023-09-12T13:11:06;4.63;;;4.40;;
4646;SDS011;2336;47.822;7.564;2023-09-12T13:13:34;5.00;;;4.80;;
4646;SDS011;2336;47.822;7.564;2023-09-12T13:16:01;5.13;;;4.50;;
4646;SDS011;2336;47.822;7.564;2023-09-12T13:18:32;4.60;;;4.07;;
4646;SDS011;2336;47.822;7.564;2023-09-12T13:20:59;4.93;;;4.63;;
4646;SDS011;2336;47.822;7.564;2023-09-12T13:23:26;5.37;;;4.80;;
4646;SDS011;2336;47.822;7.564;2023-09-12T13:25:54;4.80;;;4.50;;
4646;SDS011;2336;47.822;7.564;2023-09-12T13:28:21;4.47;;;4.17;;
4646;SDS011;2336;47.822;7.564;2023-09-12T13:30:50;4.43;;;4.13;;
4646;SDS011;2336;47.822;7.564;2023-09-12T13:33:17;5.10;;;4.73;;
4646;SDS011;2336;47.822;7.564;2023-09-12T13:35:46;5.60;;;5.10;;
4646;SDS011;2336;47.822;7.564;2023-09-12T13:38:13;5.33;;;4.90;;
4646;SDS011;2336;47.822;7.564;2023-09-12T13:40:42;5.30;;;4.80;;
4646;SDS011;2336;47.822;7.564;2023-09-12T13:43:09;7.13;;;4.53;;
4646;SDS011;2336;47.822;7.564;2023-09-12T13:45:36;5.37;;;5.07;;
4646;SDS011;2336;47.822;7.564;2023-09-12T13:48:04;5.50;;;5.27;;
4646;SDS011;2336;47.822;7.564;2023-09-12T13:50:31;7.73;;;4.40;;
4646;SDS011;2336;47.822;7.564;2023-09-12T13:53:00;5.37;;;5.07;;
4646;SDS011;2336;47.822;7.564;2023-09-12T13:55:31;5.30;;;4.93;;
4646;SDS011;2336;47.822;7.564;2023-09-12T13:58:00;5.03;;;4.63;;
4646;SDS011;2336;47.822;7.564;2023-09-12T14:00:27;5.17;;;4.87;;
4646;SDS011;2336;47.822;7.564;2023-09-12T14:02:54;5.33;;;5.13;;
4646;SDS011;2336;47.822;7.564;2023-09-12T14:05:21;7.87;;;5.13;;
4646;SDS011;2336;47.822;7.564;2023-09-12T14:07:48;5.20;;;4.70;;
4646;SDS011;2336;47.822;7.564;2023-09-12T14:10:17;5.87;;;5.30;;
4646;SDS011;2336;47.822;7.564;2023-09-12T14:12:44;5.57;;;5.17;;
4646;SDS011;2336;47.822;7.564;2023-09-12T14:15:11;5.43;;;4.93;;
4646;SDS011;2336;47.822;7.564;2023-09-12T14:17:39;4.53;;;4.33;;
4646;SDS011;2336;47.822;7.564;2023-09-12T14:20:06;5.37;;;5.07;;
4646;SDS011;2336;47.822;7.564;2023-09-12T14:22:34;5.67;;;5.37;;
4646;SDS011;2336;47.822;7.564;2023-09-12T14:25:01;5.30;;;5.00;;
4646;SDS011;2336;47.822;7.564;2023-09-12T14:27:29;8.83;;;5.57;;
4646;SDS011;2336;47.822;7.564;2023-09-12T14:29:56;6.10;;;4.70;;
4646;SDS011;2336;47.822;7.564;2023-09-12T14:32:24;5.83;;;5.20;;
4646;SDS011;2336;47.822;7.564;2023-09-12T14:34:51;5.00;;;4.60;;
4646;SDS011;2336;47.822;7.564;2023-09-12T14:37:18;5.17;;;4.90;;
4646;SDS011;2336;47.822;7.564;2023-09-12T14:39:44;5.53;;;5.27;;
4646;SDS011;2336;47.822;7.564;2023-09-12T14:42:11;5.70;;;5.30;;
4646;SDS011;2336;47.822;7.564;2023-09-12T14:44:40;6.57;;;5.10;;
4646;SDS011;2336;47.822;7.564;2023-09-12T14:47:06;5.20;;;4.80;;
4646;SDS011;2336;47.822;7.564;2023-09-12T14:49:33;5.50;;;5.20;;
4646;SDS011;2336;47.822;7.564;2023-09-12T14:52:00;5.00;;;4.57;;
4646;SDS011;2336;47.822;7.564;2023-09-12T14:54:27;6.50;;;5.40;;
4646;SDS011;2336;47.822;7.564;2023-09-12T14:56:54;5.70;;;5.40;;
4646;SDS011;2336;47.822;7.564;2023-09-12T14:59:21;5.60;;;5.20;;
4646;SDS011;2336;47.822;7.564;2023-09-12T15:01:49;8.83;;;5.10;;
4646;SDS011;2336;47.822;7.564;2023-09-12T15:04:16;4.60;;;4.40;;
4646;SDS011;2336;47.822;7.564;2023-09-12T15:06:43;4.83;;;4.63;;
4646;SDS011;2336;47.822;7.564;2023-09-12T15:09:10;5.60;;;5.20;;
4646;SDS011;2336;47.822;7.564;2023-09-12T15:11:36;5.70;;;5.30;;
4646;SDS011;2336;47.822;7.564;2023-09-12T15:14:03;4.93;;;4.73;;
4646;SDS011;2336;47.822;7.564;2023-09-12T15:16:30;5.30;;;5.00;;
4646;SDS011;2336;47.822;7.564;2023-09-12T15:19:00;6.00;;;5.40;;